Time;durP1;ratioP1;P1;durP2;ratioP2;P2;SDS_P1;SDS_P2;PMS_P1;PMS_P2;Temp;Humidity;BMP_temperature;BMP_pressure;BME280_temperature;BME280_humidity;BME280_pressure;Samples;Min_cycle;Max_cycle;Signal;HPM_P1;HPM_P2
2023/10/31 00:00:34;;;;;;;;;;;;;;;12.65;94.37;97613.53;7141484;40;20077;31
2023/10/31 00:06:09;;;;;;;;;;;;;;;12.61;93.92;97609.59;7217994;40;20017;31
2023/10/31 00:11:45;;;;;;;;;;;;;;;12.55;93.29;97614.00;7256644;40;19992;31
2023/10/31 00:17:05;;;;;;;;;;;;;;;12.53;93.91;97609.88;7278209;39;20019;31
2023/10/31 00:22:25;;;;;;;;;;;;;;;12.53;92.90;97624.22;7288380;39;20016;31
2023/10/31 00:28:01;;;;;;;;;;;;;;;12.50;92.47;97637.34;7266723;40;19993;31
2023/10/31 00:33:36;;;;;;;;;;;;;;;12.47;92.52;97629.66;7233239;40;19993;31
2023/10/31 00:38:56;;;;;;;;;;;;;;;12.41;93.20;97634.06;7276493;39;19999;31
2023/10/31 00:44:32;;;;;;;;;;;;;;;12.44;92.85;97646.31;7233559;40;19993;31
2023/10/31 00:49:53;;;;;;;;;;;;;;;12.38;92.22;97650.69;7171628;40;19995;31
2023/10/31 00:55:14;;;;;;;;;;;;;;;12.36;92.30;97652.78;7241909;40;19993;31
2023/10/31 01:00:50;;;;;;;;;;;;;;;12.34;92.98;97654.88;7276691;40;20087;31
2023/10/31 01:06:25;;;;;;;;;;;;;;;12.35;93.32;97658.41;7255967;40;19997;31
2023/10/31 01:11:45;;;;;;;;;;;;;;;12.29;93.78;97648.44;7249007;40;19994;31
2023/10/31 01:17:21;;;;;;;;;;;;;;;12.24;93.55;97659.94;7267394;40;19996;31
2023/10/31 01:22:41;;;;;;;;;;;;;;;12.23;93.34;97663.66;7319063;39;20003;31
2023/10/31 01:28:16;;;;;;;;;;;;;;;12.21;93.09;97663.03;7319645;39;20011;31
2023/10/31 01:33:52;;;;;;;;;;;;;;;12.16;93.14;97662.84;7326809;39;20014;31
2023/10/31 01:39:12;;;;;;;;;;;;;;;12.21;93.15;97671.13;7283132;39;19997;31
2023/10/31 01:44:32;;;;;;;;;;;;;;;12.25;93.90;97664.25;7278056;39;19993;31
2023/10/31 01:50:08;;;;;;;;;;;;;;;12.17;93.38;97659.09;7284400;39;20015;31
2023/10/31 01:55:43;;;;;;;;;;;;;;;12.13;92.73;97668.69;7264777;40;19996;31
2023/10/31 02:01:18;;;;;;;;;;;;;;;12.11;92.74;97674.28;7255493;40;19993;31
2023/10/31 02:06:54;;;;;;;;;;;;;;;12.10;92.15;97679.94;7228489;40;20004;31
2023/10/31 02:12:29;;;;;;;;;;;;;;;12.09;91.75;97689.06;7259134;40;21107;31
2023/10/31 02:17:49;;;;;;;;;;;;;;;12.13;92.09;97691.13;7258491;40;20124;31
2023/10/31 02:23:26;;;;;;;;;;;;;;;12.08;91.59;97699.03;7230501;40;19993;31
2023/10/31 02:28:46;;;;;;;;;;;;;;;12.02;91.96;97694.47;7233340;40;20036;31
2023/10/31 02:39:26;;;;;;;;;;;;;;;11.99;91.31;97696.78;7263927;40;20019;31
2023/10/31 02:49:51;;;;;;;;;;;;;;;12.04;91.40;97699.66;7343294;39;19992;31
2023/10/31 02:55:27;;;;;;;;;;;;;;;12.03;90.49;97708.81;7317131;39;20033;31
2023/10/31 03:06:28;;;;;;;;;;;;;;;11.95;89.72;97717.97;7297564;39;19992;31
2023/10/31 03:12:04;;;;;;;;;;;;;;;11.97;91.04;97745.63;7294591;39;21137;31
2023/10/31 03:17:25;;;;;;;;;;;;;;;12.03;90.50;97755.56;7304966;39;20106;31
2023/10/31 03:22:44;;;;;;;;;;;;;;;12.03;90.16;97766.34;7338770;39;21678;31
2023/10/31 03:28:23;;;;;;;;;;;;;;;12.02;90.07;97780.09;7326882;39;20325;31
2023/10/31 03:33:57;;;;;;;;;;;;;;;12.00;90.92;97790.25;7305597;39;20540;31
2023/10/31 03:39:19;;;;;;;;;;;;;;;12.01;90.44;97795.44;7297015;40;21192;31
2023/10/31 03:44:54;;;;;;;;;;;;;;;11.95;91.30;97804.38;7245809;40;20493;31
2023/10/31 03:55:19;;;;;;;;;;;;;;;11.97;91.54;97804.19;7242365;40;20717;31
2023/10/31 04:00:55;;;;;;;;;;;;;;;11.94;91.25;97804.56;7320260;39;20003;31
2023/10/31 04:11:35;;;;;;;;;;;;;;;11.89;90.21;97817.91;7301793;39;20004;31
2023/10/31 04:22:16;;;;;;;;;;;;;;;11.87;89.63;97814.56;7310374;39;20022;31
2023/10/31 04:27:49;;;;;;;;;;;;;;;11.85;89.50;97813.97;7114300;39;21057;31
2023/10/31 04:33:09;;;;;;;;;;;;;;;11.87;89.60;97817.25;7266214;40;20386;31
2023/10/31 04:38:46;;;;;;;;;;;;;;;11.86;89.46;97815.59;7317373;39;20143;31
2023/10/31 04:44:22;;;;;;;;;;;;;;;11.93;89.72;97819.16;7319613;39;20012;31
2023/10/31 04:49:43;;;;;;;;;;;;;;;11.87;91.05;97820.81;7338243;39;19991;31
2023/10/31 04:55:19;;;;;;;;;;;;;;;11.85;92.16;97830.97;7343627;39;20014;31
2023/10/31 05:00:40;;;;;;;;;;;;;;;11.83;92.94;97826.81;7296360;39;20068;31
2023/10/31 05:06:14;;;;;;;;;;;;;;;11.83;93.40;97807.94;7266840;39;20008;31
2023/10/31 05:11:51;;;;;;;;;;;;;;;11.79;92.98;97812.09;7235679;40;20011;31
2023/10/31 05:17:13;;;;;;;;;;;;;;;11.72;92.82;97820.16;7259223;39;19992;31
2023/10/31 05:22:33;;;;;;;;;;;;;;;11.68;93.77;97824.28;7258189;40;20098;31
2023/10/31 05:28:09;;;;;;;;;;;;;;;11.75;93.02;97835.97;7218021;40;20120;31
2023/10/31 05:33:43;;;;;;;;;;;;;;;11.79;92.57;97841.78;7193601;40;21109;31
2023/10/31 05:39:19;;;;;;;;;;;;;;;11.84;92.81;97837.44;7236944;40;20102;31
2023/10/31 05:44:54;;;;;;;;;;;;;;;11.83;92.94;97856.53;7245901;40;20025;31
2023/10/31 05:50:14;;;;;;;;;;;;;;;11.82;93.48;97871.88;7253704;40;20008;31
2023/10/31 05:55:35;;;;;;;;;;;;;;;11.74;93.57;97891.00;7227137;40;20043;31
2023/10/31 06:01:11;;;;;;;;;;;;;;;11.68;93.46;97892.59;7258735;40;20109;31
2023/10/31 06:06:47;;;;;;;;;;;;;;;11.57;92.49;97905.87;7239696;40;21060;31
2023/10/31 06:12:08;;;;;;;;;;;;;;;11.49;92.30;97898.81;7258428;40;19993;31
2023/10/31 06:17:44;;;;;;;;;;;;;;;11.49;92.54;97920.41;7229939;40;19993;31
2023/10/31 06:23:04;;;;;;;;;;;;;;;11.49;92.59;97917.69;7226525;40;20016;31
2023/10/31 06:28:40;;;;;;;;;;;;;;;11.47;92.76;97937.81;7237774;39;20082;31
2023/10/31 06:34:16;;;;;;;;;;;;;;;11.47;92.78;97954.84;7226890;40;20055;31
2023/10/31 06:39:37;;;;;;;;;;;;;;;11.48;92.20;97951.09;7225827;40;20110;31
2023/10/31 06:44:58;;;;;;;;;;;;;;;11.46;92.57;97957.72;7278153;40;19993;31
2023/10/31 06:50:46;;;;;;;;;;;;;;;11.46;92.36;97965.81;7274038;39;20028;31
2023/10/31 06:56:07;;;;;;;;;;;;;;;11.47;91.25;97971.03;7219864;40;19997;31
2023/10/31 07:01:28;;;;;;;;;;;;;;;11.43;91.89;97964.38;7218627;40;19993;31
2023/10/31 07:07:01;;;;;;;;;;;;;;;11.49;92.67;97971.66;7234774;40;20007;31
2023/10/31 07:12:22;;;;;;;;;;;;;;;11.51;93.38;97968.75;7234000;40;20016;31
2023/10/31 07:17:42;;;;;;;;;;;;;;;11.50;93.02;97976.00;7273766;39;20122;31
2023/10/31 07:23:18;;;;;;;;;;;;;;;11.52;92.95;97973.94;7296662;39;19996;31
2023/10/31 07:28:38;;;;;;;;;;;;;;;11.56;93.19;97985.16;7331798;39;20059;31
2023/10/31 07:39:18;;;;;;;;;;;;;;;11.61;92.52;98004.28;7359873;39;20010;31
2023/10/31 07:44:54;;;;;;;;;;;;;;;11.61;92.58;98001.59;7276317;40;19993;31
2023/10/31 07:50:14;;;;;;;;;;;;;;;11.58;91.62;98000.09;7246510;39;20011;31
2023/10/31 07:55:50;;;;;;;;;;;;;;;11.65;91.23;98016.34;7213985;40;20008;31
2023/10/31 08:01:11;;;;;;;;;;;;;;;11.64;91.72;98015.50;7180710;40;19993;31
2023/10/31 08:06:46;;;;;;;;;;;;;;;11.69;91.53;98023.81;7179865;40;20017;31
2023/10/31 08:12:23;;;;;;;;;;;;;;;11.71;91.61;98031.75;7224046;40;19993;31
2023/10/31 08:17:44;;;;;;;;;;;;;;;11.79;91.45;98019.94;7255858;40;19993;31
2023/10/31 08:23:19;;;;;;;;;;;;;;;11.80;91.25;98035.97;7225377;40;20062;31
2023/10/31 08:28:56;;;;;;;;;;;;;;;11.82;90.61;98038.44;7245219;39;19992;31
2023/10/31 08:34:28;;;;;;;;;;;;;;;11.83;91.34;98040.09;7235851;40;20015;31
2023/10/31 08:39:50;;;;;;;;;;;;;;;11.91;90.51;98050.72;7197832;40;20017;31
2023/10/31 08:45:24;;;;;;;;;;;;;;;11.95;90.42;98055.50;7199454;40;20049;31
2023/10/31 08:50:45;;;;;;;;;;;;;;;11.97;89.86;98050.75;7195878;40;19994;31
2023/10/31 08:56:05;;;;;;;;;;;;;;;11.97;90.60;98060.72;7214836;40;20009;31
2023/10/31 09:01:43;;;;;;;;;;;;;;;12.06;90.16;98070.31;7234699;40;20010;31
2023/10/31 09:12:23;;;;;;;;;;;;;;;12.24;89.23;98064.31;7269240;39;20097;31
2023/10/31 09:18:00;;;;;;;;;;;;;;;12.32;89.02;98061.41;7336081;39;20009;31
2023/10/31 09:23:36;;;;;;;;;;;;;;;12.45;88.50;98066.84;7269398;39;20148;31
2023/10/31 09:29:10;;;;;;;;;;;;;;;12.57;89.10;98081.41;7242422;40;20108;31
2023/10/31 09:34:47;;;;;;;;;;;;;;;12.57;87.98;98095.75;7218603;40;20008;31
2023/10/31 09:40:22;;;;;;;;;;;;;;;12.63;88.23;98092.22;7214821;40;19993;31
2023/10/31 09:45:42;;;;;;;;;;;;;;;12.74;87.83;98092.62;7238409;40;19993;31
2023/10/31 09:51:19;;;;;;;;;;;;;;;12.78;87.65;98091.16;7259841;40;20016;31
2023/10/31 09:56:39;;;;;;;;;;;;;;;12.75;87.77;98095.13;7207876;40;20165;31
2023/10/31 10:01:59;;;;;;;;;;;;;;;12.80;87.56;98089.09;7241817;40;20140;31
2023/10/31 10:07:35;;;;;;;;;;;;;;;12.85;87.07;98094.72;7252708;40;21230;31
2023/10/31 10:13:12;;;;;;;;;;;;;;;12.84;88.34;98104.72;7214526;40;20061;31
2023/10/31 10:23:50;;;;;;;;;;;;;;;12.84;87.89;98114.69;7212570;40;20008;31
2023/10/31 10:34:29;;;;;;;;;;;;;;;12.88;89.31;98115.94;7268940;40;20023;31
2023/10/31 10:45:10;;;;;;;;;;;;;;;13.08;88.38;98116.75;7295832;39;20003;31
2023/10/31 10:55:49;;;;;;;;;;;;;;;13.14;87.71;98124.06;7249960;40;20007;31
2023/10/31 11:01:27;;;;;;;;;;;;;;;13.10;87.51;98114.69;7258207;40;20019;31
2023/10/31 11:07:00;;;;;;;;;;;;;;;13.17;88.19;98106.59;7206536;40;20010;31
2023/10/31 11:12:35;;;;;;;;;;;;;;;13.31;87.47;98100.94;7238572;40;20007;31
2023/10/31 11:18:09;;;;;;;;;;;;;;;13.43;86.27;98099.25;7019280;40;21032;31
2023/10/31 11:23:29;;;;;;;;;;;;;;;13.33;86.12;98109.72;7229110;39;19994;31
2023/10/31 11:29:03;;;;;;;;;;;;;;;13.42;85.61;98116.56;7248438;39;20108;31
2023/10/31 11:34:40;;;;;;;;;;;;;;;13.60;84.90;98106.94;7239366;40;20006;31
2023/10/31 11:40:16;;;;;;;;;;;;;;;13.68;84.94;98107.53;7235960;40;19993;31
2023/10/31 11:45:51;;;;;;;;;;;;;;;13.91;84.05;98110.56;7277753;40;19993;31
2023/10/31 11:51:26;;;;;;;;;;;;;;;13.83;82.12;98112.69;7219593;40;20262;31
2023/10/31 11:57:06;;;;;;;;;;;;;;;13.93;82.35;98104.94;7180485;40;19998;31
2023/10/31 12:02:27;;;;;;;;;;;;;;;14.15;81.99;98103.59;7219815;40;20075;31
2023/10/31 12:08:03;;;;;;;;;;;;;;;14.45;81.18;98114.72;7235095;39;20008;31
2023/10/31 12:13:23;;;;;;;;;;;;;;;14.59;80.23;98110.03;7240395;39;21134;31
2023/10/31 12:18:43;;;;;;;;;;;;;;;14.64;78.31;98126.50;7259986;40;20059;31
2023/10/31 12:24:20;;;;;;;;;;;;;;;14.58;78.10;98116.50;7250013;40;20028;31
2023/10/31 12:29:55;;;;;;;;;;;;;;;14.71;78.84;98113.69;7253217;40;20012;31
2023/10/31 12:35:31;;;;;;;;;;;;;;;14.78;78.24;98115.34;7263245;40;20078;31
2023/10/31 12:41:08;;;;;;;;;;;;;;;14.79;79.63;98125.13;7269199;40;20049;31
2023/10/31 12:46:44;;;;;;;;;;;;;;;14.98;79.48;98128.72;7198140;40;19998;31
2023/10/31 12:52:19;;;;;;;;;;;;;;;15.14;77.54;98130.88;7159295;40;19994;31
2023/10/31 12:57:55;;;;;;;;;;;;;;;15.21;76.26;98130.84;7153596;40;20065;31
2023/10/31 13:03:15;;;;;;;;;;;;;;;15.18;76.58;98129.38;7163765;40;20006;31
2023/10/31 13:13:56;;;;;;;;;;;;;;;15.08;76.36;98137.22;7216838;40;19992;31
2023/10/31 13:24:22;;;;;;;;;;;;;;;14.77;77.85;98151.66;7299991;39;20004;31
2023/10/31 13:35:04;;;;;;;;;;;;;;;14.48;79.33;98165.78;7314198;39;20021;31
2023/10/31 13:40:24;;;;;;;;;;;;;;;14.47;78.49;98174.16;7318946;39;20062;31
2023/10/31 13:51:05;;;;;;;;;;;;;;;14.47;81.00;98182.28;7336753;39;20011;31
2023/10/31 13:56:26;;;;;;;;;;;;;;;14.56;80.01;98187.25;7348020;39;19995;31
2023/10/31 14:02:01;;;;;;;;;;;;;;;14.46;80.60;98184.16;7357689;39;20067;31
2023/10/31 14:07:37;;;;;;;;;;;;;;;14.39;81.36;98189.59;7264044;39;20081;31
2023/10/31 14:13:12;;;;;;;;;;;;;;;14.37;80.72;98196.28;7229671;40;19993;31
2023/10/31 14:18:33;;;;;;;;;;;;;;;14.18;81.17;98191.75;7219184;40;19994;31
2023/10/31 14:24:09;;;;;;;;;;;;;;;14.09;81.59;98207.41;7156319;40;19994;31
2023/10/31 14:29:30;;;;;;;;;;;;;;;14.08;82.45;98210.34;7132051;40;20259;31
2023/10/31 14:34:50;;;;;;;;;;;;;;;14.05;82.17;98227.03;7189295;40;19994;31
2023/10/31 14:40:28;;;;;;;;;;;;;;;13.90;82.80;98225.41;7213335;40;20110;31
2023/10/31 14:46:04;;;;;;;;;;;;;;;13.83;83.30;98239.97;7246518;40;20007;31
2023/10/31 14:51:25;;;;;;;;;;;;;;;13.78;83.88;98243.31;7232072;40;19993;31
2023/10/31 14:57:01;;;;;;;;;;;;;;;13.74;84.25;98252.06;7317925;39;19991;31
2023/10/31 15:02:22;;;;;;;;;;;;;;;13.75;84.51;98260.00;7328510;39;21052;31
2023/10/31 15:07:42;;;;;;;;;;;;;;;13.69;85.10;98265.44;7307820;39;19992;31
2023/10/31 15:13:18;;;;;;;;;;;;;;;13.71;86.10;98274.16;7317602;39;19991;31
2023/10/31 15:18:38;;;;;;;;;;;;;;;13.70;86.58;98277.91;7302470;39;20024;31
2023/10/31 15:24:14;;;;;;;;;;;;;;;13.63;87.07;98290.62;7327218;39;20111;31
2023/10/31 15:34:56;;;;;;;;;;;;;;;13.49;89.08;98289.78;7305885;39;20003;31
2023/10/31 15:40:31;;;;;;;;;;;;;;;13.36;89.61;98306.03;7340745;39;19991;31
2023/10/31 15:45:51;;;;;;;;;;;;;;;13.34;89.70;98303.50;7304761;39;20039;31
2023/10/31 15:51:27;;;;;;;;;;;;;;;13.33;89.91;98307.28;7275172;40;20350;31
2023/10/31 15:56:48;;;;;;;;;;;;;;;13.24;90.90;98315.78;7199529;40;19995;31
2023/10/31 16:02:23;;;;;;;;;;;;;;;13.20;91.96;98323.50;7227864;40;20008;31
2023/10/31 16:07:59;;;;;;;;;;;;;;;13.15;92.23;98331.37;7258688;40;20011;31
2023/10/31 16:13:20;;;;;;;;;;;;;;;13.06;92.16;98338.00;7206509;40;19993;31
2023/10/31 16:18:39;;;;;;;;;;;;;;;13.03;92.41;98347.31;7203406;40;20008;31
2023/10/31 16:24:15;;;;;;;;;;;;;;;12.98;92.39;98351.69;7242256;40;20081;31
2023/10/31 16:29:35;;;;;;;;;;;;;;;12.90;92.61;98370.81;7253250;40;19992;31
2023/10/31 16:34:55;;;;;;;;;;;;;;;12.87;93.57;98369.34;7290822;39;20339;31
2023/10/31 16:40:32;;;;;;;;;;;;;;;12.84;93.82;98377.84;7296449;39;20047;31
2023/10/31 16:45:52;;;;;;;;;;;;;;;12.85;93.82;98382.22;7249243;40;19992;31
2023/10/31 16:51:30;;;;;;;;;;;;;;;12.89;94.13;98394.31;7216683;40;20092;31
2023/10/31 16:57:06;;;;;;;;;;;;;;;12.85;94.13;98394.91;7205422;40;19997;31
2023/10/31 17:02:27;;;;;;;;;;;;;;;12.85;93.96;98401.16;7218408;40;19998;31
2023/10/31 17:07:46;;;;;;;;;;;;;;;12.82;94.46;98412.38;7266565;40;19992;31
2023/10/31 17:13:22;;;;;;;;;;;;;;;12.79;94.25;98414.63;7275772;39;20045;31
2023/10/31 17:18:43;;;;;;;;;;;;;;;12.77;94.10;98417.53;7243933;39;19993;31
2023/10/31 17:24:04;;;;;;;;;;;;;;;12.76;93.85;98425.88;7245859;40;20397;31
2023/10/31 17:29:39;;;;;;;;;;;;;;;12.75;93.71;98429.59;7236165;40;20091;31
2023/10/31 17:35:00;;;;;;;;;;;;;;;12.75;93.62;98426.91;7213722;40;20008;31
2023/10/31 17:40:22;;;;;;;;;;;;;;;12.74;93.77;98442.28;7248841;40;21134;31
2023/10/31 17:45:57;;;;;;;;;;;;;;;12.71;94.07;98450.78;7292277;39;20076;31
2023/10/31 17:51:19;;;;;;;;;;;;;;;12.71;94.06;98460.78;7219094;40;20004;31
2023/10/31 17:56:39;;;;;;;;;;;;;;;12.71;93.45;98463.47;7218052;40;19997;31
2023/10/31 18:02:15;;;;;;;;;;;;;;;12.74;93.88;98477.44;7205440;40;19997;31
2023/10/31 18:07:36;;;;;;;;;;;;;;;12.74;93.51;98468.47;7215088;40;20023;31
2023/10/31 18:12:56;;;;;;;;;;;;;;;12.74;93.32;98479.28;7031874;40;20922;31
2023/10/31 18:18:31;;;;;;;;;;;;;;;12.73;93.02;98491.97;7226100;40;20017;31
2023/10/31 18:24:07;;;;;;;;;;;;;;;12.71;93.18;98498.63;7202983;40;21178;31
2023/10/31 18:29:29;;;;;;;;;;;;;;;12.69;93.46;98501.53;7179830;40;19994;31
2023/10/31 18:35:04;;;;;;;;;;;;;;;12.74;93.59;98511.75;7174600;40;19998;31
2023/10/31 18:40:25;;;;;;;;;;;;;;;12.71;93.66;98534.62;7169832;40;20012;31
2023/10/31 18:46:01;;;;;;;;;;;;;;;12.73;94.01;98515.47;7227554;40;20179;31
2023/10/31 18:51:37;;;;;;;;;;;;;;;12.72;93.56;98524.66;7306770;39;19992;31
2023/10/31 18:56:58;;;;;;;;;;;;;;;12.71;93.80;98509.44;7272515;40;20019;31
2023/10/31 19:02:18;;;;;;;;;;;;;;;12.70;93.69;98519.41;7255112;39;20084;31
2023/10/31 19:07:54;;;;;;;;;;;;;;;12.71;93.76;98528.38;7282600;39;20015;31
2023/10/31 19:13:30;;;;;;;;;;;;;;;12.73;93.71;98529.00;7252148;40;20058;31
2023/10/31 19:19:05;;;;;;;;;;;;;;;12.73;93.09;98539.81;7238201;40;19997;31
2023/10/31 19:24:41;;;;;;;;;;;;;;;12.74;93.25;98534.22;7240139;40;20090;31
2023/10/31 19:30:01;;;;;;;;;;;;;;;12.74;92.99;98536.09;7214929;40;20009;31
2023/10/31 19:40:40;;;;;;;;;;;;;;;12.71;93.16;98540.03;7290693;39;20003;31
2023/10/31 19:51:06;;;;;;;;;;;;;;;12.73;92.72;98553.34;7316537;39;20015;31
2023/10/31 19:56:39;;;;;;;;;;;;;;;12.76;92.75;98539.44;7280575;39;20009;31
2023/10/31 20:07:19;;;;;;;;;;;;;;;12.71;91.86;98555.41;7280733;39;20005;31
2023/10/31 20:12:55;;;;;;;;;;;;;;;12.69;92.24;98550.19;7270878;40;20004;31
2023/10/31 20:18:16;;;;;;;;;;;;;;;12.66;92.50;98580.34;7243733;40;20012;31
2023/10/31 20:28:57;;;;;;;;;;;;;;;12.65;92.20;98559.72;7238430;40;20042;31
2023/10/31 20:34:18;;;;;;;;;;;;;;;12.61;91.95;98567.41;7202236;40;19992;31
2023/10/31 20:39:39;;;;;;;;;;;;;;;12.60;91.64;98556.78;7257200;40;20011;31
2023/10/31 20:45:14;;;;;;;;;;;;;;;12.58;92.08;98565.09;7277304;39;19993;31
2023/10/31 20:50:49;;;;;;;;;;;;;;;12.54;92.03;98562.97;7225744;40;20008;31
2023/10/31 20:56:09;;;;;;;;;;;;;;;12.49;92.26;98555.44;7274238;39;20015;31
2023/10/31 21:06:50;;;;;;;;;;;;;;;12.52;92.02;98554.22;7297906;39;20015;31
2023/10/31 21:12:25;;;;;;;;;;;;;;;12.47;92.39;98554.78;7279060;40;20011;31
2023/10/31 21:18:01;;;;;;;;;;;;;;;12.45;91.95;98548.75;7268503;40;19992;31
2023/10/31 21:23:37;;;;;;;;;;;;;;;12.39;92.10;98560.34;7238145;40;20150;31
2023/10/31 21:34:02;;;;;;;;;;;;;;;12.42;92.50;98553.69;7317850;39;20011;31
2023/10/31 21:39:38;;;;;;;;;;;;;;;12.41;92.73;98552.87;7302129;39;19993;31
2023/10/31 21:45:14;;;;;;;;;;;;;;;12.40;92.81;98551.19;7255228;39;19991;31
2023/10/31 21:55:55;;;;;;;;;;;;;;;12.30;94.12;98556.09;7217568;40;20071;31
2023/10/31 22:06:20;;;;;;;;;;;;;;;12.33;93.73;98555.69;7269554;40;20076;31
2023/10/31 22:17:00;;;;;;;;;;;;;;;12.37;94.27;98537.25;7324581;39;20026;31
2023/10/31 22:22:20;;;;;;;;;;;;;;;12.35;93.61;98537.44;7343246;39;19995;31
2023/10/31 22:27:55;;;;;;;;;;;;;;;12.36;94.03;98546.38;7340876;39;21158;31
2023/10/31 22:33:31;;;;;;;;;;;;;;;12.32;93.63;98540.53;7299510;39;20166;31
2023/10/31 22:38:51;;;;;;;;;;;;;;;12.28;94.45;98536.56;7226905;40;20004;31
2023/10/31 22:44:12;;;;;;;;;;;;;;;12.29;94.40;98530.09;7255486;40;19993;31
2023/10/31 22:49:48;;;;;;;;;;;;;;;12.33;93.83;98539.47;7259780;40;20012;31
2023/10/31 22:55:27;;;;;;;;;;;;;;;12.35;94.51;98536.59;7294599;39;20011;31
2023/10/31 23:00:44;;;;;;;;;;;;;;;12.38;94.20;98531.63;7320310;39;19991;31
2023/10/31 23:06:26;;;;;;;;;;;;;;;12.32;94.76;98527.03;7286836;40;20011;31
2023/10/31 23:11:41;;;;;;;;;;;;;;;12.33;95.18;98522.44;7287768;39;20109;31
2023/10/31 23:17:01;;;;;;;;;;;;;;;12.27;95.25;98534.88;7312635;39;19992;31
2023/10/31 23:22:37;;;;;;;;;;;;;;;12.26;95.94;98532.34;7298962;40;19992;31
2023/10/31 23:33:01;;;;;;;;;;;;;;;12.24;96.43;98527.16;7276681;40;20009;31
2023/10/31 23:43:42;;;;;;;;;;;;;;;12.31;96.19;98521.81;7286415;39;20003;31
2023/10/31 23:49:03;;;;;;;;;;;;;;;12.27;95.99;98537.56;7319296;39;19992;31
2023/10/31 23:54:23;;;;;;;;;;;;;;;12.26;96.97;98537.75;7319217;39;20002;31
